createdAt,value
2022-09-05T00:00:06.107Z,99.99
2022-09-05T00:01:06.356Z,99.99
2022-09-05T00:02:06.235Z,99.99
2022-09-05T00:03:06.044Z,99.99
2022-09-05T00:04:23.589Z,99.99
2022-09-05T00:05:06.079Z,99.99
2022-09-05T00:06:05.930Z,99.99
2022-09-05T00:07:05.967Z,99.99
2022-09-05T00:08:05.918Z,99.99
2022-09-05T00:09:05.957Z,99.99
2022-09-05T00:10:06.449Z,99.99
2022-09-05T00:11:41.158Z,99.99
2022-09-05T00:12:05.894Z,99.99
2022-09-05T00:13:07.370Z,99.99
2022-09-05T00:14:05.886Z,99.99
2022-09-05T00:15:15.925Z,99.99
2022-09-05T00:16:05.919Z,99.99
2022-09-05T00:17:05.845Z,99.99
2022-09-05T00:19:55.971Z,99.99
2022-09-05T00:24:21.084Z,99.99
2022-09-05T00:24:21.929Z,99.99
2022-09-05T00:24:29.485Z,99.99
2022-09-05T00:24:32.400Z,99.99
2022-09-05T00:24:34.503Z,99.99
2022-09-05T00:24:37.399Z,99.99
2022-09-05T00:25:30.472Z,99.99
2022-09-05T00:26:05.794Z,99.99
2022-09-05T00:27:05.795Z,99.99
2022-09-05T00:28:25.238Z,99.99
2022-09-05T00:29:05.797Z,99.99
2022-09-05T00:31:06.052Z,99.99
2022-09-05T00:31:55.890Z,99.99
2022-09-05T00:32:05.841Z,99.99
2022-09-05T00:33:17.292Z,99.99
2022-09-05T00:34:05.780Z,99.99
2022-09-05T00:35:05.923Z,99.99
2022-09-05T00:36:05.775Z,99.99
2022-09-05T00:37:05.800Z,99.99
2022-09-05T00:38:05.737Z,99.99
2022-09-05T00:39:05.739Z,99.99
2022-09-05T00:40:18.387Z,99.99
2022-09-05T00:41:05.719Z,99.99
2022-09-05T00:42:05.721Z,99.99
2022-09-05T00:43:05.733Z,99.99
2022-09-05T00:44:05.695Z,99.99
2022-09-05T00:45:05.860Z,99.99
2022-09-05T00:46:05.713Z,99.99
2022-09-05T00:47:05.767Z,99.99
2022-09-05T00:48:05.670Z,99.99
2022-09-05T00:49:05.672Z,99.99
2022-09-05T00:50:05.778Z,99.99
2022-09-05T00:51:05.665Z,99.99
2022-09-05T00:52:05.662Z,99.99
2022-09-05T00:53:06.588Z,99.99
2022-09-05T00:54:05.624Z,99.99
2022-09-05T00:55:05.792Z,99.99
2022-09-05T00:56:05.628Z,99.99
2022-09-05T00:57:05.650Z,99.99
2022-09-05T00:58:05.691Z,99.99
2022-09-05T00:59:05.595Z,99.99
2022-09-05T01:00:05.764Z,99.99
2022-09-05T01:01:20.572Z,99.99
2022-09-05T01:02:05.734Z,99.99
2022-09-05T01:03:05.725Z,99.99
2022-09-05T01:04:05.598Z,99.99
2022-09-05T01:05:05.713Z,99.99
2022-09-05T01:06:05.600Z,99.99
2022-09-05T01:07:05.556Z,99.99
2022-09-05T01:08:05.550Z,99.99
2022-09-05T01:09:07.611Z,99.99
2022-09-05T01:10:05.697Z,99.99
2022-09-05T01:11:05.574Z,99.99
2022-09-05T01:12:05.536Z,99.99
2022-09-05T01:13:05.522Z,99.99
2022-09-05T01:14:05.507Z,99.99
2022-09-05T01:15:05.681Z,99.99
2022-09-05T01:16:05.618Z,99.99
2022-09-05T01:17:05.509Z,99.99
2022-09-05T01:18:05.531Z,99.99
2022-09-05T01:19:05.510Z,99.99
2022-09-05T01:20:19.081Z,99.99
2022-09-05T01:21:05.485Z,99.99
2022-09-05T01:22:05.490Z,99.99
2022-09-05T01:23:08.223Z,99.99
2022-09-05T01:24:05.471Z,99.99
2022-09-05T01:25:05.606Z,99.99
2022-09-05T01:26:05.485Z,99.99
2022-09-05T01:27:05.457Z,99.99
2022-09-05T01:29:05.437Z,99.99
2022-09-05T01:29:13.887Z,99.99
2022-09-05T01:30:05.580Z,99.99
2022-09-05T01:31:05.446Z,99.99
2022-09-05T01:32:05.425Z,99.99
2022-09-05T01:33:06.280Z,99.99
2022-09-05T01:34:05.406Z,99.99
2022-09-05T01:35:05.542Z,99.99
2022-09-05T01:36:05.403Z,99.99
2022-09-05T01:37:05.394Z,99.99
2022-09-05T01:38:05.380Z,99.99
2022-09-05T01:39:53.598Z,99.99
2022-09-05T01:40:15.513Z,99.99
2022-09-05T01:41:18.356Z,99.99
2022-09-05T01:42:05.347Z,99.99
2022-09-05T01:43:05.338Z,99.99
2022-09-05T01:44:05.349Z,99.99
2022-09-05T01:45:05.478Z,99.99
2022-09-05T01:46:07.775Z,99.99
2022-09-05T01:47:05.525Z,99.99
2022-09-05T01:48:05.328Z,99.99
2022-09-05T01:49:05.313Z,99.99
2022-09-05T01:50:05.449Z,99.99
2022-09-05T01:51:08.055Z,99.99
2022-09-05T01:52:05.299Z,99.99
2022-09-05T01:53:05.648Z,99.99
2022-09-05T01:54:05.283Z,99.99
2022-09-05T01:55:05.344Z,99.99
2022-09-05T01:56:12.021Z,99.99
2022-09-05T01:57:05.252Z,99.99
2022-09-05T01:58:05.251Z,99.99
2022-09-05T01:59:05.244Z,99.99
2022-09-05T02:00:05.402Z,99.99
2022-09-05T02:01:31.797Z,99.99
2022-09-05T02:02:05.366Z,99.99
2022-09-05T02:03:05.269Z,99.99
2022-09-05T02:04:07.098Z,99.99
2022-09-05T02:06:05.252Z,99.99
2022-09-05T02:07:19.967Z,99.99
2022-09-05T02:08:05.197Z,99.99
2022-09-05T02:09:05.205Z,99.99
2022-09-05T02:10:07.019Z,99.99
2022-09-05T02:11:05.218Z,99.99
2022-09-05T02:12:05.170Z,99.99
2022-09-05T02:13:05.197Z,99.99
2022-09-05T02:14:05.183Z,99.99
2022-09-05T02:15:05.306Z,99.99
2022-09-05T02:16:05.184Z,99.99
2022-09-05T02:17:05.149Z,99.99
2022-09-05T02:18:05.157Z,99.99
2022-09-05T02:19:05.147Z,99.99
2022-09-05T02:20:05.272Z,99.99
2022-09-05T02:21:05.145Z,99.99
2022-09-05T02:22:05.126Z,99.99
2022-09-05T02:23:05.097Z,99.99
2022-09-05T02:24:05.092Z,99.99
2022-09-05T02:25:30.628Z,99.99
2022-09-05T02:26:05.277Z,99.99
2022-09-05T02:27:05.064Z,99.99
2022-09-05T02:28:08.120Z,99.99
2022-09-05T02:29:05.061Z,99.99
2022-09-05T02:30:05.203Z,99.99
2022-09-05T02:31:19.613Z,99.99
2022-09-05T02:32:05.046Z,99.99
2022-09-05T02:33:05.023Z,99.99
2022-09-05T02:34:05.025Z,99.99
2022-09-05T02:35:05.170Z,99.99
2022-09-05T02:36:05.010Z,99.99
2022-09-05T02:37:04.992Z,99.99
2022-09-05T02:41:26.157Z,99.99
2022-09-05T02:45:01.050Z,99.99
2022-09-05T02:45:01.475Z,99.99
2022-09-05T02:45:02.582Z,99.99
2022-09-05T02:45:06.153Z,99.99
2022-09-05T02:45:11.426Z,99.99
2022-09-05T02:45:19.794Z,99.99
2022-09-05T02:45:25.488Z,99.99
2022-09-05T02:46:05.114Z,99.99
2022-09-05T02:47:05.030Z,99.99
2022-09-05T02:48:14.837Z,99.99
2022-09-05T02:49:26.185Z,99.99
2022-09-05T02:52:56.649Z,99.99
2022-09-05T02:57:26.731Z,99.99
2022-09-05T02:57:27.556Z,99.99
2022-09-05T02:57:34.735Z,99.99
2022-09-05T02:57:35.750Z,99.99
2022-09-05T02:57:40.975Z,99.99
2022-09-05T02:57:42.131Z,99.99
2022-09-05T02:57:47.032Z,99.99
2022-09-05T02:58:08.814Z,99.99
2022-09-05T02:59:11.082Z,99.99
2022-09-05T03:00:05.004Z,99.99
2022-09-05T03:01:04.924Z,99.99
2022-09-05T03:02:25.281Z,99.99
2022-09-05T03:03:04.926Z,99.99
2022-09-05T03:04:04.859Z,99.99
2022-09-05T03:05:05.426Z,99.99
2022-09-05T03:06:04.825Z,99.99
2022-09-05T03:07:04.823Z,99.99
2022-09-05T03:08:04.809Z,99.99
2022-09-05T03:09:16.615Z,99.99
2022-09-05T03:10:05.068Z,99.99
2022-09-05T03:11:04.806Z,99.99
2022-09-05T03:12:29.322Z,99.99
2022-09-05T03:13:04.776Z,99.99
2022-09-05T03:14:04.789Z,99.99
2022-09-05T03:15:18.608Z,99.99
2022-09-05T03:16:05.009Z,99.99
2022-09-05T03:17:04.813Z,99.99
2022-09-05T03:18:20.792Z,99.99
2022-09-05T03:19:04.722Z,99.99
2022-09-05T03:20:04.892Z,99.99
2022-09-05T03:21:09.520Z,99.99
2022-09-05T03:22:04.715Z,99.99
2022-09-05T03:23:04.734Z,99.99
2022-09-05T03:24:04.726Z,99.99
2022-09-05T03:25:04.866Z,99.99
2022-09-05T03:26:04.706Z,99.99
2022-09-05T03:27:04.753Z,99.99
2022-09-05T03:28:04.699Z,99.99
2022-09-05T03:29:04.667Z,99.99
2022-09-05T03:30:04.808Z,99.99
2022-09-05T03:31:04.717Z,99.99
2022-09-05T03:32:04.647Z,99.99
2022-09-05T03:33:04.727Z,99.99
2022-09-05T03:34:04.696Z,99.99
2022-09-05T03:35:08.419Z,99.99
2022-09-05T03:36:04.637Z,99.99
2022-09-05T03:37:04.646Z,99.99
2022-09-05T03:38:04.604Z,99.99
2022-09-05T03:39:04.618Z,99.99
2022-09-05T03:40:15.217Z,99.99
2022-09-05T03:41:04.609Z,99.99
2022-09-05T03:42:04.580Z,99.99
2022-09-05T03:43:04.598Z,99.99
2022-09-05T03:44:04.562Z,99.99
2022-09-05T03:45:04.720Z,99.99
2022-09-05T03:46:04.569Z,99.99
2022-09-05T03:47:04.562Z,99.99
2022-09-05T03:48:23.080Z,99.99
2022-09-05T03:50:09.467Z,99.99
2022-09-05T03:53:58.477Z,99.99
2022-09-05T03:57:06.747Z,99.99
2022-09-05T03:57:07.292Z,99.99
2022-09-05T03:57:11.163Z,99.99
2022-09-05T03:57:12.922Z,99.99
2022-09-05T03:57:17.488Z,99.99
2022-09-05T03:57:24.169Z,99.99
2022-09-05T03:57:32.450Z,99.99
2022-09-05T03:58:16.179Z,99.99
2022-09-05T03:59:04.910Z,99.99
2022-09-05T04:00:04.772Z,99.99
2022-09-05T04:01:18.908Z,99.99
2022-09-05T04:07:12.020Z,99.99
2022-09-05T04:08:08.536Z,99.99
2022-09-05T04:08:15.053Z,99.99
2022-09-05T04:08:15.369Z,99.99
2022-09-05T04:08:18.263Z,99.99
2022-09-05T04:08:20.564Z,99.99
2022-09-05T04:08:20.564Z,99.99
2022-09-05T04:09:04.541Z,99.99
2022-09-05T04:10:04.786Z,99.99
2022-09-05T04:11:04.455Z,99.99
2022-09-05T04:12:04.391Z,99.99
2022-09-05T04:13:04.380Z,99.99
2022-09-05T04:14:04.412Z,99.99
2022-09-05T04:15:04.552Z,99.99
2022-09-05T04:16:04.380Z,99.99
2022-09-05T04:17:04.420Z,99.99
2022-09-05T04:18:04.676Z,99.99
2022-09-05T04:19:04.336Z,99.99
2022-09-05T04:20:04.473Z,99.99
2022-09-05T04:21:04.606Z,99.99
2022-09-05T04:22:04.765Z,99.99
2022-09-05T04:23:04.353Z,99.99
2022-09-05T04:24:04.309Z,99.99
2022-09-05T04:25:04.452Z,99.99
2022-09-05T04:26:11.735Z,99.99
2022-09-05T04:27:04.339Z,99.99
2022-09-05T04:28:04.285Z,99.99
2022-09-05T04:29:04.287Z,99.99
2022-09-05T04:30:14.703Z,99.99
2022-09-05T04:31:04.272Z,99.99
2022-09-05T04:32:15.428Z,99.99
2022-09-05T04:33:04.299Z,99.99
2022-09-05T04:34:04.279Z,99.99
2022-09-05T04:35:04.365Z,99.99
2022-09-05T04:36:17.921Z,99.99
2022-09-05T04:37:04.235Z,99.99
2022-09-05T04:38:04.202Z,99.99
2022-09-05T04:39:04.223Z,99.99
2022-09-05T04:40:04.421Z,99.99
2022-09-05T04:41:04.182Z,99.99
2022-09-05T04:42:04.162Z,99.99
2022-09-05T04:43:04.165Z,99.99
2022-09-05T04:44:04.183Z,99.99
2022-09-05T04:45:04.340Z,99.99
2022-09-05T04:46:04.191Z,99.99
2022-09-05T04:47:04.178Z,99.99
2022-09-05T04:48:04.154Z,99.99
2022-09-05T04:49:04.151Z,99.99
2022-09-05T04:50:04.272Z,99.99
2022-09-05T04:51:04.109Z,99.99
2022-09-05T04:52:04.157Z,99.99
2022-09-05T04:53:04.117Z,99.99
2022-09-05T04:54:04.114Z,99.99
2022-09-05T04:55:04.225Z,99.99
2022-09-05T04:56:04.098Z,99.99
2022-09-05T04:57:13.820Z,99.99
2022-09-05T04:58:04.298Z,99.99
2022-09-05T05:00:08.930Z,99.99
2022-09-05T05:06:01.473Z,99.99
2022-09-05T05:06:04.445Z,99.99
2022-09-05T05:06:04.779Z,99.99
2022-09-05T05:06:09.584Z,99.99
2022-09-05T05:06:16.111Z,99.99
2022-09-05T05:06:18.133Z,99.99
2022-09-05T05:06:31.756Z,99.99
2022-09-05T05:07:07.562Z,99.99
2022-09-05T05:08:04.300Z,99.99
2022-09-05T05:09:04.004Z,99.99
2022-09-05T05:11:30.317Z,99.99
2022-09-05T05:14:36.682Z,99.99
2022-09-05T05:17:54.099Z,99.99
2022-09-05T05:17:58.095Z,99.99
2022-09-05T05:17:58.393Z,99.99
2022-09-05T05:18:09.601Z,99.99
2022-09-05T05:18:12.648Z,99.99
2022-09-05T05:18:13.106Z,99.99
2022-09-05T05:18:49.144Z,99.99
2022-09-05T05:19:17.072Z,99.99
2022-09-05T05:20:40.028Z,99.99
2022-09-05T05:21:04.002Z,99.99
2022-09-05T05:22:03.958Z,99.99
2022-09-05T05:23:07.791Z,99.99
2022-09-05T05:24:03.960Z,99.99
2022-09-05T05:25:03.940Z,99.99
2022-09-05T05:26:03.931Z,99.99
2022-09-05T05:27:03.911Z,99.99
2022-09-05T05:28:12.326Z,99.99
2022-09-05T05:29:03.869Z,99.99
2022-09-05T05:30:04.031Z,99.99
2022-09-05T05:31:03.858Z,99.99
2022-09-05T05:32:03.942Z,99.99
2022-09-05T05:33:03.838Z,99.99
2022-09-05T05:34:04.013Z,99.99
2022-09-05T05:35:04.002Z,99.99
2022-09-05T05:36:03.856Z,99.99
2022-09-05T05:37:03.821Z,99.99
2022-09-05T05:38:03.843Z,99.99
2022-09-05T05:39:03.857Z,99.99
2022-09-05T05:40:04.467Z,99.99
2022-09-05T05:41:03.894Z,99.99
2022-09-05T05:42:20.769Z,99.99
2022-09-05T05:43:03.891Z,99.99
2022-09-05T05:44:03.830Z,99.99
2022-09-05T05:45:04.363Z,99.99
2022-09-05T05:46:03.892Z,99.99
2022-09-05T05:47:03.798Z,99.99
2022-09-05T05:48:03.784Z,99.99
2022-09-05T05:49:03.782Z,99.99
2022-09-05T05:50:03.939Z,99.99
2022-09-05T05:51:03.772Z,99.99
2022-09-05T05:52:03.798Z,99.99
2022-09-05T05:53:03.782Z,99.99
2022-09-05T05:54:03.752Z,99.99
2022-09-05T05:55:09.736Z,99.99
2022-09-05T05:56:03.765Z,99.99
2022-09-05T05:57:10.075Z,99.99
2022-09-05T05:58:03.711Z,99.99
2022-09-05T05:59:03.706Z,99.99
2022-09-05T06:00:03.885Z,99.99
2022-09-05T06:01:03.748Z,99.99
2022-09-05T06:02:03.783Z,99.99
2022-09-05T06:03:25.492Z,99.99
2022-09-05T06:04:03.711Z,99.99
2022-09-05T06:05:04.349Z,99.99
2022-09-05T06:06:03.697Z,99.99
2022-09-05T06:07:03.690Z,99.99
2022-09-05T06:10:17.721Z,99.99
2022-09-05T06:14:05.207Z,99.99
2022-09-05T06:14:55.800Z,99.99
2022-09-05T06:14:56.592Z,99.99
2022-09-05T06:15:01.625Z,99.99
2022-09-05T06:15:01.762Z,99.99
2022-09-05T06:15:01.924Z,99.99
2022-09-05T06:15:10.268Z,99.99
2022-09-05T06:16:06.471Z,99.99
2022-09-05T06:17:03.647Z,99.99
2022-09-05T06:18:03.601Z,99.99
2022-09-05T06:19:03.592Z,99.99
2022-09-05T06:22:06.313Z,99.99
2022-09-05T06:22:08.869Z,99.99
2022-09-05T06:22:10.741Z,99.99
2022-09-05T06:23:03.590Z,99.99
2022-09-05T06:24:03.627Z,99.99
2022-09-05T06:25:05.521Z,99.99
2022-09-05T06:26:03.582Z,99.99
2022-09-05T06:27:03.579Z,99.99
2022-09-05T06:28:18.455Z,99.99
2022-09-05T06:29:03.583Z,99.99
2022-09-05T06:30:03.722Z,99.99
2022-09-05T06:31:30.798Z,99.99
2022-09-05T06:32:03.585Z,99.99
2022-09-05T06:33:03.545Z,99.99
2022-09-05T06:34:03.562Z,99.99
2022-09-05T06:35:03.701Z,99.99
2022-09-05T06:36:04.367Z,99.99
2022-09-05T06:37:03.604Z,99.99
2022-09-05T06:38:03.525Z,99.99
2022-09-05T06:39:03.495Z,99.99
2022-09-05T06:40:03.723Z,99.99
2022-09-05T06:41:03.528Z,99.99
2022-09-05T06:42:03.491Z,99.99
2022-09-05T06:43:03.486Z,99.99
2022-09-05T06:44:03.478Z,99.99
2022-09-05T06:45:27.351Z,99.99
2022-09-05T06:46:03.557Z,99.99
2022-09-05T06:47:23.796Z,99.99
2022-09-05T06:48:03.462Z,99.99
2022-09-05T06:49:28.358Z,99.99
2022-09-05T06:50:24.511Z,99.99
2022-09-05T06:51:08.165Z,99.99
2022-09-05T06:52:27.767Z,99.99
2022-09-05T06:53:07.117Z,99.99
2022-09-05T06:54:03.464Z,99.99
2022-09-05T06:55:03.982Z,99.99
2022-09-05T06:56:03.602Z,99.99
2022-09-05T06:57:03.740Z,99.99
2022-09-05T06:58:03.529Z,99.99
2022-09-05T06:59:07.725Z,99.99
2022-09-05T07:00:03.544Z,99.99
2022-09-05T07:01:03.765Z,99.99
2022-09-05T07:02:03.544Z,99.99
2022-09-05T07:03:03.408Z,99.99
2022-09-05T07:04:33.387Z,99.99
2022-09-05T07:05:36.906Z,99.99
2022-09-05T07:07:06.556Z,99.99
2022-09-05T07:08:15.697Z,99.99
2022-09-05T07:09:03.379Z,99.99
2022-09-05T07:10:16.735Z,99.99
2022-09-05T07:11:15.726Z,99.99
2022-09-05T07:12:03.460Z,99.99
2022-09-05T07:13:03.363Z,99.99
2022-09-05T07:14:03.327Z,99.99
2022-09-05T07:15:08.889Z,99.99
2022-09-05T07:16:03.388Z,99.99
2022-09-05T07:17:03.356Z,99.99
2022-09-05T07:18:11.283Z,99.99
2022-09-05T07:19:03.415Z,99.78
2022-09-05T07:20:03.463Z,99.78
2022-09-05T07:21:17.165Z,99.40
2022-09-05T07:22:03.298Z,99.99
2022-09-05T07:23:16.897Z,99.99
2022-09-05T07:24:08.978Z,99.99
2022-09-05T07:25:03.667Z,99.54
2022-09-05T07:26:03.282Z,99.99
2022-09-05T07:27:03.317Z,99.99
2022-09-05T07:28:29.329Z,99.99
2022-09-05T07:29:03.291Z,99.99
2022-09-05T07:30:03.597Z,99.99
2022-09-05T07:31:03.392Z,99.99
2022-09-05T07:32:03.355Z,99.69
2022-09-05T07:33:03.253Z,99.78
2022-09-05T07:34:03.288Z,99.49
2022-09-05T07:35:03.438Z,99.99
2022-09-05T07:36:03.248Z,99.98
2022-09-05T07:37:14.700Z,99.99
2022-09-05T07:38:03.296Z,99.40
2022-09-05T07:39:27.414Z,99.49
2022-09-05T07:40:25.470Z,99.99
2022-09-05T07:41:03.242Z,99.99
2022-09-05T07:42:03.217Z,98.54
2022-09-05T07:43:09.028Z,99.88
2022-09-05T07:44:03.233Z,99.06
2022-09-05T07:45:03.404Z,98.49
2022-09-05T07:46:03.434Z,96.94
2022-09-05T07:47:03.211Z,96.75
2022-09-05T07:48:03.253Z,96.46
2022-09-05T07:49:03.218Z,97.04
2022-09-05T07:51:51.279Z,97.57
2022-09-05T07:56:46.466Z,97.24
2022-09-05T07:56:47.162Z,96.94
2022-09-05T07:56:49.428Z,97.52
2022-09-05T07:56:53.193Z,96.89
2022-09-05T07:56:58.645Z,97.24
2022-09-05T07:57:03.161Z,97.04
2022-09-05T07:58:03.301Z,97.24
2022-09-05T07:59:03.304Z,98.49
2022-09-05T08:00:03.356Z,96.85
2022-09-05T08:01:03.261Z,97.28
2022-09-05T08:02:03.248Z,97.57
2022-09-05T08:03:03.187Z,97.09
2022-09-05T08:04:05.744Z,95.07
2022-09-05T08:05:03.337Z,94.54
2022-09-05T08:06:03.259Z,92.80
2022-09-05T08:07:48.158Z,91.60
2022-09-05T08:08:03.185Z,90.09
2022-09-05T08:09:21.819Z,89.95
2022-09-05T08:10:08.378Z,88.64
2022-09-05T08:11:24.254Z,85.11
2022-09-05T08:12:09.592Z,83.12
2022-09-05T08:13:23.909Z,82.39
2022-09-05T08:14:25.452Z,82.87
2022-09-05T08:15:03.788Z,82.10
2022-09-05T08:16:13.158Z,80.11
2022-09-05T08:17:03.309Z,78.79
2022-09-05T08:18:03.284Z,81.02
2022-09-05T08:19:03.198Z,79.50
2022-09-05T08:20:08.791Z,79.66
2022-09-05T08:21:03.132Z,79.91
2022-09-05T08:22:03.150Z,80.11
2022-09-05T08:23:03.155Z,80.98
2022-09-05T08:24:13.197Z,79.62
2022-09-05T08:25:03.316Z,80.24
2022-09-05T08:26:03.195Z,80.59
2022-09-05T08:27:03.396Z,80.69
2022-09-05T08:28:03.174Z,81.52
2022-09-05T08:29:03.179Z,81.92
2022-09-05T08:30:25.207Z,85.59
2022-09-05T08:31:03.255Z,85.64
2022-09-05T08:32:03.167Z,86.28
2022-09-05T08:33:10.775Z,86.57
2022-09-05T08:34:03.140Z,86.86
2022-09-05T08:35:03.311Z,88.02
2022-09-05T08:36:03.183Z,87.73
2022-09-05T08:37:03.139Z,90.23
2022-09-05T08:38:03.162Z,89.61
2022-09-05T08:39:03.138Z,87.91
2022-09-05T08:40:11.326Z,85.35
2022-09-05T08:41:03.160Z,84.56
2022-09-05T08:42:05.953Z,82.95
2022-09-05T08:45:58.578Z,81.45
2022-09-05T08:46:39.657Z,77.32
2022-09-05T08:46:41.511Z,77.29
2022-09-05T08:46:42.597Z,77.03
2022-09-05T08:47:03.255Z,73.55
2022-09-05T08:48:03.208Z,72.71
2022-09-05T08:49:11.494Z,73.04
2022-09-05T08:50:03.290Z,71.91
2022-09-05T08:51:03.153Z,70.32
2022-09-05T08:52:03.138Z,71.74
2022-09-05T08:53:03.255Z,74.04
2022-09-05T08:54:03.135Z,72.45
2022-09-05T08:55:07.126Z,73.90
2022-09-05T08:56:03.128Z,74.84
2022-09-05T08:57:03.146Z,75.42
2022-09-05T08:58:03.135Z,76.29
2022-09-05T08:59:27.547Z,75.55
2022-09-05T09:00:19.179Z,73.74
2022-09-05T09:01:04.717Z,73.90
2022-09-05T09:02:46.051Z,73.83
2022-09-05T09:03:04.520Z,74.90
2022-09-05T09:04:03.212Z,77.51
2022-09-05T09:05:03.361Z,76.39
2022-09-05T09:06:15.009Z,75.45
2022-09-05T09:07:47.746Z,73.61
2022-09-05T09:08:03.167Z,75.20
2022-09-05T09:09:05.653Z,75.01
2022-09-05T09:10:03.261Z,72.81
2022-09-05T09:11:03.091Z,73.88
2022-09-05T09:12:03.129Z,73.88
2022-09-05T09:13:03.097Z,72.27
2022-09-05T09:14:03.113Z,72.75
2022-09-05T09:15:03.255Z,72.75
2022-09-05T09:16:03.164Z,74.01
2022-09-05T09:17:03.114Z,73.10
2022-09-05T09:18:08.421Z,72.71
2022-09-05T09:19:03.132Z,73.49
2022-09-05T09:20:03.300Z,72.91
2022-09-05T09:21:03.151Z,72.13
2022-09-05T09:22:03.152Z,73.74
2022-09-05T09:23:03.214Z,74.71
2022-09-05T09:24:03.150Z,73.30
2022-09-05T09:25:14.201Z,74.62
2022-09-05T09:26:03.154Z,75.49
2022-09-05T09:27:03.154Z,74.62
2022-09-05T09:28:46.925Z,73.94
2022-09-05T09:29:03.105Z,73.39
2022-09-05T09:30:03.240Z,73.58
2022-09-05T09:31:03.116Z,73.39
2022-09-05T09:32:03.072Z,73.94
2022-09-05T09:33:03.100Z,73.36
2022-09-05T09:34:03.128Z,72.71
2022-09-05T09:35:05.595Z,75.24
2022-09-05T09:36:06.241Z,76.31
2022-09-05T09:37:03.604Z,73.24
2022-09-05T09:38:03.150Z,73.14
2022-09-05T09:39:11.966Z,73.14
2022-09-05T09:40:03.297Z,74.30
2022-09-05T09:41:03.402Z,73.24
2022-09-05T09:42:03.165Z,73.24
2022-09-05T09:43:06.796Z,73.43
2022-09-05T09:44:03.062Z,74.50
2022-09-05T09:45:22.931Z,76.25
2022-09-05T09:46:03.318Z,73.46
2022-09-05T09:47:03.058Z,73.08
2022-09-05T09:48:03.133Z,71.81
2022-09-05T09:49:03.083Z,72.39
2022-09-05T09:50:03.224Z,72.30
2022-09-05T09:51:03.083Z,72.59
2022-09-05T09:52:03.060Z,70.97
2022-09-05T09:53:03.067Z,71.36
2022-09-05T09:54:03.091Z,71.56
2022-09-05T09:55:03.255Z,70.49
2022-09-05T09:56:03.081Z,68.93
2022-09-05T09:57:03.067Z,70.52
2022-09-05T09:58:03.060Z,70.42
2022-09-05T09:59:03.111Z,69.84
2022-09-05T10:00:03.217Z,69.84
2022-09-05T10:01:03.080Z,69.74
2022-09-05T10:02:24.032Z,69.65
2022-09-05T10:04:44.341Z,69.94
2022-09-05T10:10:32.804Z,71.30
2022-09-05T10:10:34.461Z,70.49
2022-09-05T10:10:47.491Z,72.69
2022-09-05T10:10:49.032Z,70.97
2022-09-05T10:10:55.367Z,70.49
2022-09-05T10:10:59.636Z,72.59
2022-09-05T10:11:22.794Z,71.26
2022-09-05T10:12:03.969Z,69.87
2022-09-05T10:13:08.903Z,72.78
2022-09-05T10:14:03.038Z,72.55
2022-09-05T10:15:30.940Z,73.52
2022-09-05T10:16:04.391Z,74.27
2022-09-05T10:17:03.073Z,75.24
2022-09-05T10:18:03.033Z,73.43
2022-09-05T10:19:03.059Z,74.05
2022-09-05T10:20:08.766Z,72.01
2022-09-05T10:21:16.709Z,72.59
2022-09-05T10:23:03.096Z,72.11
2022-09-05T10:24:03.243Z,73.02
2022-09-05T10:25:19.688Z,73.11
2022-09-05T10:26:03.059Z,72.76
2022-09-05T10:27:03.034Z,70.42
2022-09-05T10:28:03.061Z,71.26
2022-09-05T10:29:11.810Z,70.39
2022-09-05T10:30:03.530Z,70.91
2022-09-05T10:33:01.060Z,70.42
2022-09-05T10:35:07.670Z,71.43
2022-09-05T10:35:09.931Z,70.68
2022-09-05T10:35:14.792Z,71.08
2022-09-05T10:35:20.821Z,69.03
2022-09-05T10:36:03.140Z,68.16
2022-09-05T10:37:03.326Z,69.62
2022-09-05T10:38:10.285Z,68.12
2022-09-05T10:39:03.024Z,66.34
2022-09-05T10:40:03.284Z,67.60
2022-09-05T10:41:21.670Z,67.31
2022-09-05T10:42:03.693Z,67.83
2022-09-05T10:43:03.090Z,68.26
2022-09-05T10:44:03.094Z,67.35
2022-09-05T10:45:03.178Z,70.36
2022-09-05T10:46:03.098Z,69.00
2022-09-05T10:47:03.076Z,69.13
2022-09-05T10:48:08.406Z,68.90
2022-09-05T10:49:03.043Z,69.06
2022-09-05T10:50:03.145Z,67.90
2022-09-05T10:51:03.066Z,68.32
2022-09-05T10:52:03.497Z,69.23
2022-09-05T10:53:03.042Z,69.52
2022-09-05T10:54:03.044Z,67.67
2022-09-05T10:55:14.304Z,67.54
2022-09-05T10:56:03.031Z,69.00
2022-09-05T10:57:03.034Z,68.87
2022-09-05T10:58:03.042Z,69.16
2022-09-05T11:02:16.401Z,67.99
2022-09-05T11:02:19.843Z,69.74
2022-09-05T11:02:22.308Z,68.35
2022-09-05T11:02:27.589Z,70.42
2022-09-05T11:03:03.093Z,69.65
2022-09-05T11:04:03.129Z,70.23
2022-09-05T11:05:03.379Z,67.83
2022-09-05T11:06:08.972Z,69.29
2022-09-05T11:07:03.029Z,69.48
2022-09-05T11:08:03.025Z,67.96
2022-09-05T11:09:03.051Z,68.45
2022-09-05T11:10:03.171Z,68.55
2022-09-05T11:11:03.020Z,67.50
2022-09-05T11:12:03.020Z,66.08
2022-09-05T11:13:03.117Z,65.43
2022-09-05T11:14:03.008Z,63.96
2022-09-05T11:15:03.196Z,64.00
2022-09-05T11:16:04.679Z,64.00
2022-09-05T11:17:03.269Z,64.19
2022-09-05T11:18:03.139Z,63.45
2022-09-05T11:19:03.082Z,64.55
2022-09-05T11:21:03.184Z,66.86
2022-09-05T11:22:19.839Z,66.56
2022-09-05T11:23:03.077Z,66.66
2022-09-05T11:24:03.114Z,66.66
2022-09-05T11:25:03.178Z,67.54
2022-09-05T11:26:03.071Z,68.32
2022-09-05T11:27:24.980Z,66.56
2022-09-05T11:28:03.216Z,66.86
2022-09-05T11:29:03.039Z,67.96
2022-09-05T11:30:03.334Z,65.53
2022-09-05T11:31:03.105Z,65.92
2022-09-05T11:33:58.812Z,67.18
2022-09-05T11:39:47.755Z,66.79
2022-09-05T11:39:51.262Z,66.11
2022-09-05T11:39:51.796Z,66.27
2022-09-05T11:39:53.393Z,65.53
2022-09-05T11:39:55.957Z,65.50
2022-09-05T11:40:02.603Z,65.88
2022-09-05T11:40:10.547Z,67.67
2022-09-05T11:40:24.984Z,65.40
2022-09-05T11:41:11.521Z,67.44
2022-09-05T11:42:03.107Z,66.89
2022-09-05T11:43:03.056Z,64.84
2022-09-05T11:44:25.007Z,65.92
2022-09-05T11:45:03.230Z,64.75
2022-09-05T11:46:03.123Z,64.65
2022-09-05T11:47:28.434Z,63.68
2022-09-05T11:48:03.033Z,63.48
2022-09-05T11:49:03.029Z,65.04
2022-09-05T11:50:03.572Z,66.21
2022-09-05T11:51:03.020Z,65.07
2022-09-05T11:52:03.054Z,63.97
2022-09-05T11:53:03.077Z,67.28
2022-09-05T11:54:03.029Z,65.88
2022-09-05T11:55:03.197Z,65.40
2022-09-05T11:56:03.019Z,65.59
2022-09-05T11:57:26.649Z,66.17
2022-09-05T11:58:43.179Z,64.49
2022-09-05T11:59:05.049Z,66.83
2022-09-05T12:00:18.587Z,66.53
2022-09-05T12:01:42.194Z,65.95
2022-09-05T12:02:16.895Z,65.40
2022-09-05T12:03:03.088Z,65.20
2022-09-05T12:04:08.075Z,65.20
2022-09-05T12:05:49.440Z,64.75
2022-09-05T12:06:03.126Z,66.21
2022-09-05T12:07:03.093Z,65.04
2022-09-05T12:08:03.052Z,65.63
2022-09-05T12:09:03.042Z,64.84
2022-09-05T12:10:03.187Z,65.23
2022-09-05T12:11:03.004Z,63.16
2022-09-05T12:12:03.051Z,64.04
2022-09-05T12:13:03.006Z,63.26
2022-09-05T12:15:07.120Z,64.84
2022-09-05T12:16:08.644Z,65.14
2022-09-05T12:17:03.019Z,63.97
2022-09-05T12:18:03.040Z,63.87
2022-09-05T12:19:06.318Z,63.78
2022-09-05T12:20:03.235Z,61.24
2022-09-05T12:21:03.035Z,61.02
2022-09-05T12:22:08.855Z,62.57
2022-09-05T12:23:03.060Z,63.26
2022-09-05T12:24:40.816Z,62.19
2022-09-05T12:25:24.760Z,61.60
2022-09-05T12:27:35.412Z,62.19
2022-09-05T12:27:41.798Z,63.06
2022-09-05T12:28:28.652Z,62.16
2022-09-05T12:29:28.033Z,61.96
2022-09-05T12:30:03.380Z,63.32
2022-09-05T12:31:36.370Z,62.54
2022-09-05T12:33:11.382Z,62.93
2022-09-05T12:35:37.996Z,64.65
2022-09-05T12:36:03.649Z,63.39
2022-09-05T12:36:12.452Z,62.32
2022-09-05T12:39:30.276Z,63.49
2022-09-05T12:40:15.837Z,63.29
2022-09-05T12:40:53.330Z,63.29
2022-09-05T12:41:36.239Z,63.97
2022-09-05T12:41:37.579Z,63.68
2022-09-05T12:41:41.113Z,64.84
2022-09-05T12:41:43.898Z,64.65
2022-09-05T12:42:14.104Z,65.53
2022-09-05T12:44:38.062Z,65.89
2022-09-05T12:44:40.014Z,66.40
2022-09-05T12:45:03.298Z,65.01
2022-09-05T12:46:04.018Z,65.30
2022-09-05T12:47:16.947Z,64.40
2022-09-05T12:48:03.005Z,64.40
2022-09-05T12:49:07.203Z,64.98
2022-09-05T12:50:14.914Z,66.05
2022-09-05T12:51:03.052Z,67.41
2022-09-05T12:52:03.007Z,67.44
2022-09-05T12:53:03.232Z,68.22
2022-09-05T12:54:02.999Z,68.41
2022-09-05T12:55:03.050Z,67.83
2022-09-05T12:57:53.008Z,66.96
2022-09-05T13:02:07.899Z,66.08
2022-09-05T13:02:45.359Z,66.86